Airfield :
LOGIN :

Register | Disclaimer

   EN    FR    IT 

 










Legend :    VFR   Marginal VFR   IFR   Intensive IFR   Very Intensive IFR
Visi :
Ceiling :
>= 8 km
>= 3000ft
5 to 8 km
1000 to 3000 ft
1500m to 5 km
500 to 1000 ft
800 to 1500m
200 to 500 ft
< 800m
< 200 ft
Symbols :   Thunderstorms  Fog  Heavy snow  Heavy precipitations  Wind > 20 kt
SIGMETs :     Misc.  Thunderstorms  Icing  Turbulence  Mountain Waves  Volcanic Ashes






- Airport Elevation : 195 ft


LFMY - Salon de Provence

CURRENT METAR :
  • 191100Z AUTO 30012KT 250V340 9999 FEW048/// 22/10 Q1016

EXPIRED METARs :
  • 191030Z AUTO 29012KT 250V320 9999 FEW044 21/11 Q1016
  • 191000Z AUTO 27010KT 220V310 9999 BKN041 BKN047 21/11 Q1016
  • 190930Z AUTO 28008KT 250V320 CAVOK 20/11 Q1016
  • 190900Z AUTO 30007KT 270V340 CAVOK 19/12 Q1016
  • 190830Z AUTO 28005KT 240V340 CAVOK 18/12 Q1016

Expired Forecast.



MET'MAP, your aeronautical weather chart ! - Copyright ORBIFLY December 2007 - Disclaimer

ORBIFLY MET'MAP TEAM :

Programming & Development : Alexandra Zaïnal
Concept & original design : Baudouin d'Aumeries
Assistance for programming : Marc-Olivier Méhu
Technical & hardware support : Manuel Goepfert

Contact : metmap@orbifly.com




SOURCES & CREDITS :

   NOAA